sensor_id;sensor_type;location;lat;lon;timestamp;temperature;humidity
13850;DHT22;6995;52.618;13.488;2023-08-17T00:00:25;20.60;99.90
13850;DHT22;6995;52.618;13.488;2023-08-17T00:02:52;20.60;99.90
13850;DHT22;6995;52.618;13.488;2023-08-17T00:05:17;20.60;99.90
13850;DHT22;6995;52.618;13.488;2023-08-17T00:07:43;20.50;99.90
13850;DHT22;6995;52.618;13.488;2023-08-17T00:10:09;20.50;99.90
13850;DHT22;6995;52.618;13.488;2023-08-17T00:12:34;20.50;99.90
13850;DHT22;6995;52.618;13.488;2023-08-17T00:15:00;20.50;99.90
13850;DHT22;6995;52.618;13.488;2023-08-17T00:17:26;20.40;99.90
13850;DHT22;6995;52.618;13.488;2023-08-17T00:19:52;20.40;99.90
13850;DHT22;6995;52.618;13.488;2023-08-17T00:22:17;20.40;99.90
13850;DHT22;6995;52.618;13.488;2023-08-17T00:24:43;20.30;99.90
13850;DHT22;6995;52.618;13.488;2023-08-17T00:27:10;20.30;99.90
13850;DHT22;6995;52.618;13.488;2023-08-17T00:29:36;20.30;99.90
13850;DHT22;6995;52.618;13.488;2023-08-17T00:32:02;20.30;99.90
13850;DHT22;6995;52.618;13.488;2023-08-17T00:34:28;20.30;99.90
13850;DHT22;6995;52.618;13.488;2023-08-17T00:36:54;20.30;99.90
13850;DHT22;6995;52.618;13.488;2023-08-17T00:39:19;20.30;99.90
13850;DHT22;6995;52.618;13.488;2023-08-17T00:41:45;20.30;99.90
13850;DHT22;6995;52.618;13.488;2023-08-17T00:44:11;20.20;99.90
13850;DHT22;6995;52.618;13.488;2023-08-17T00:46:38;20.20;99.90
13850;DHT22;6995;52.618;13.488;2023-08-17T00:49:04;20.10;99.90
13850;DHT22;6995;52.618;13.488;2023-08-17T00:51:30;20.10;99.90
13850;DHT22;6995;52.618;13.488;2023-08-17T00:53:58;20.10;99.90
13850;DHT22;6995;52.618;13.488;2023-08-17T00:56:26;20.10;99.90
13850;DHT22;6995;52.618;13.488;2023-08-17T00:58:52;20.10;99.90
13850;DHT22;6995;52.618;13.488;2023-08-17T01:01:19;20.10;99.90
13850;DHT22;6995;52.618;13.488;2023-08-17T01:03:45;20.10;99.90
13850;DHT22;6995;52.618;13.488;2023-08-17T01:06:11;20.00;99.90
13850;DHT22;6995;52.618;13.488;2023-08-17T01:08:37;20.00;99.90
13850;DHT22;6995;52.618;13.488;2023-08-17T01:11:13;19.90;99.90
13850;DHT22;6995;52.618;13.488;2023-08-17T01:13:50;19.90;99.90
13850;DHT22;6995;52.618;13.488;2023-08-17T01:16:27;19.90;99.90
13850;DHT22;6995;52.618;13.488;2023-08-17T01:18:55;19.90;99.90
13850;DHT22;6995;52.618;13.488;2023-08-17T01:21:24;19.80;99.90
13850;DHT22;6995;52.618;13.488;2023-08-17T01:23:50;19.80;99.90
13850;DHT22;6995;52.618;13.488;2023-08-17T01:26:16;19.80;99.90
13850;DHT22;6995;52.618;13.488;2023-08-17T01:28:46;19.80;99.90
13850;DHT22;6995;52.618;13.488;2023-08-17T01:31:28;19.80;99.90
13850;DHT22;6995;52.618;13.488;2023-08-17T01:34:02;19.80;99.90
13850;DHT22;6995;52.618;13.488;2023-08-17T01:36:32;19.80;99.90
13850;DHT22;6995;52.618;13.488;2023-08-17T01:38:59;19.80;99.90
13850;DHT22;6995;52.618;13.488;2023-08-17T01:41:27;19.70;99.90
13850;DHT22;6995;52.618;13.488;2023-08-17T01:43:53;19.70;99.90
13850;DHT22;6995;52.618;13.488;2023-08-17T01:46:19;19.70;99.90
13850;DHT22;6995;52.618;13.488;2023-08-17T01:48:45;19.60;99.90
13850;DHT22;6995;52.618;13.488;2023-08-17T01:51:15;19.50;99.90
13850;DHT22;6995;52.618;13.488;2023-08-17T01:53:41;19.50;99.90
13850;DHT22;6995;52.618;13.488;2023-08-17T01:56:07;19.50;99.90
13850;DHT22;6995;52.618;13.488;2023-08-17T01:58:32;19.40;99.90
13850;DHT22;6995;52.618;13.488;2023-08-17T02:01:07;19.40;99.90
13850;DHT22;6995;52.618;13.488;2023-08-17T02:03:33;19.50;99.90
13850;DHT22;6995;52.618;13.488;2023-08-17T02:05:59;19.50;99.90
13850;DHT22;6995;52.618;13.488;2023-08-17T02:08:24;19.50;99.90
13850;DHT22;6995;52.618;13.488;2023-08-17T02:10:50;19.50;99.90
13850;DHT22;6995;52.618;13.488;2023-08-17T02:13:17;19.40;99.90
13850;DHT22;6995;52.618;13.488;2023-08-17T02:15:43;19.40;99.90
13850;DHT22;6995;52.618;13.488;2023-08-17T02:18:08;19.40;99.90
13850;DHT22;6995;52.618;13.488;2023-08-17T02:20:34;19.30;99.90
13850;DHT22;6995;52.618;13.488;2023-08-17T02:23:00;19.30;99.90
13850;DHT22;6995;52.618;13.488;2023-08-17T02:25:26;19.30;99.90
13850;DHT22;6995;52.618;13.488;2023-08-17T02:27:52;19.40;99.90
13850;DHT22;6995;52.618;13.488;2023-08-17T02:30:18;19.40;99.90
13850;DHT22;6995;52.618;13.488;2023-08-17T02:32:44;19.30;99.90
13850;DHT22;6995;52.618;13.488;2023-08-17T02:35:10;19.30;99.90
13850;DHT22;6995;52.618;13.488;2023-08-17T02:37:35;19.30;99.90
13850;DHT22;6995;52.618;13.488;2023-08-17T02:40:01;19.30;99.90
13850;DHT22;6995;52.618;13.488;2023-08-17T02:42:26;19.30;99.90
13850;DHT22;6995;52.618;13.488;2023-08-17T02:44:52;19.30;99.90
13850;DHT22;6995;52.618;13.488;2023-08-17T02:47:18;19.30;99.90
13850;DHT22;6995;52.618;13.488;2023-08-17T02:49:43;19.30;99.90
13850;DHT22;6995;52.618;13.488;2023-08-17T02:52:09;19.20;99.90
13850;DHT22;6995;52.618;13.488;2023-08-17T02:54:34;19.20;99.90
13850;DHT22;6995;52.618;13.488;2023-08-17T02:57:00;19.20;99.90
13850;DHT22;6995;52.618;13.488;2023-08-17T02:59:25;19.20;99.90
13850;DHT22;6995;52.618;13.488;2023-08-17T03:01:53;19.10;99.90
13850;DHT22;6995;52.618;13.488;2023-08-17T03:04:18;19.10;99.90
13850;DHT22;6995;52.618;13.488;2023-08-17T03:06:44;19.10;99.90
13850;DHT22;6995;52.618;13.488;2023-08-17T03:09:09;19.10;99.90
13850;DHT22;6995;52.618;13.488;2023-08-17T03:11:36;19.10;99.90
13850;DHT22;6995;52.618;13.488;2023-08-17T03:14:01;19.00;99.90
13850;DHT22;6995;52.618;13.488;2023-08-17T03:16:28;19.00;99.90
13850;DHT22;6995;52.618;13.488;2023-08-17T03:18:55;19.00;99.90
13850;DHT22;6995;52.618;13.488;2023-08-17T03:21:21;19.00;99.90
13850;DHT22;6995;52.618;13.488;2023-08-17T03:23:48;19.00;99.90
13850;DHT22;6995;52.618;13.488;2023-08-17T03:26:14;19.00;99.90
13850;DHT22;6995;52.618;13.488;2023-08-17T03:28:39;19.00;99.90
13850;DHT22;6995;52.618;13.488;2023-08-17T03:31:06;19.00;99.90
13850;DHT22;6995;52.618;13.488;2023-08-17T03:33:34;18.90;99.90
13850;DHT22;6995;52.618;13.488;2023-08-17T03:35:59;19.00;99.90
13850;DHT22;6995;52.618;13.488;2023-08-17T03:38:25;19.00;99.90
13850;DHT22;6995;52.618;13.488;2023-08-17T03:40:51;19.00;99.90
13850;DHT22;6995;52.618;13.488;2023-08-17T03:43:16;19.00;99.90
13850;DHT22;6995;52.618;13.488;2023-08-17T03:45:42;19.00;99.90
13850;DHT22;6995;52.618;13.488;2023-08-17T03:48:08;18.90;99.90
13850;DHT22;6995;52.618;13.488;2023-08-17T03:50:34;19.00;99.90
13850;DHT22;6995;52.618;13.488;2023-08-17T03:53:00;18.90;99.90
13850;DHT22;6995;52.618;13.488;2023-08-17T03:55:26;19.00;99.90
13850;DHT22;6995;52.618;13.488;2023-08-17T03:57:51;19.00;99.90
13850;DHT22;6995;52.618;13.488;2023-08-17T04:00:17;19.00;99.90
13850;DHT22;6995;52.618;13.488;2023-08-17T04:02:43;19.10;99.90
13850;DHT22;6995;52.618;13.488;2023-08-17T04:05:12;19.10;99.90
13850;DHT22;6995;52.618;13.488;2023-08-17T04:07:38;19.10;99.90
13850;DHT22;6995;52.618;13.488;2023-08-17T04:10:07;19.10;99.90
13850;DHT22;6995;52.618;13.488;2023-08-17T04:12:33;19.10;99.90
13850;DHT22;6995;52.618;13.488;2023-08-17T04:14:58;19.10;99.90
13850;DHT22;6995;52.618;13.488;2023-08-17T04:17:24;19.10;99.90
13850;DHT22;6995;52.618;13.488;2023-08-17T04:19:50;19.00;99.90
13850;DHT22;6995;52.618;13.488;2023-08-17T04:22:16;19.10;99.90
13850;DHT22;6995;52.618;13.488;2023-08-17T04:24:41;19.10;99.90
13850;DHT22;6995;52.618;13.488;2023-08-17T04:27:07;19.20;99.90
13850;DHT22;6995;52.618;13.488;2023-08-17T04:29:33;19.10;99.90
13850;DHT22;6995;52.618;13.488;2023-08-17T04:31:58;19.20;99.90
13850;DHT22;6995;52.618;13.488;2023-08-17T04:34:24;19.20;99.90
13850;DHT22;6995;52.618;13.488;2023-08-17T04:36:50;19.30;99.90
13850;DHT22;6995;52.618;13.488;2023-08-17T04:39:16;19.40;99.90
13850;DHT22;6995;52.618;13.488;2023-08-17T04:41:42;19.40;99.90
13850;DHT22;6995;52.618;13.488;2023-08-17T04:44:08;19.40;99.90
13850;DHT22;6995;52.618;13.488;2023-08-17T04:46:34;19.50;99.90
13850;DHT22;6995;52.618;13.488;2023-08-17T04:49:00;19.60;99.90
13850;DHT22;6995;52.618;13.488;2023-08-17T04:51:25;19.70;99.90
13850;DHT22;6995;52.618;13.488;2023-08-17T04:53:51;19.70;99.90
13850;DHT22;6995;52.618;13.488;2023-08-17T04:56:17;19.80;99.90
13850;DHT22;6995;52.618;13.488;2023-08-17T04:58:43;19.90;99.90
13850;DHT22;6995;52.618;13.488;2023-08-17T05:01:08;19.90;99.90
13850;DHT22;6995;52.618;13.488;2023-08-17T05:03:35;20.00;99.90
13850;DHT22;6995;52.618;13.488;2023-08-17T05:06:01;20.00;99.90
13850;DHT22;6995;52.618;13.488;2023-08-17T05:08:27;20.20;99.90
13850;DHT22;6995;52.618;13.488;2023-08-17T05:10:52;20.20;99.90
13850;DHT22;6995;52.618;13.488;2023-08-17T05:13:19;20.20;99.90
13850;DHT22;6995;52.618;13.488;2023-08-17T05:15:44;20.30;99.90
13850;DHT22;6995;52.618;13.488;2023-08-17T05:18:10;20.50;99.90
13850;DHT22;6995;52.618;13.488;2023-08-17T05:20:36;20.60;99.90
13850;DHT22;6995;52.618;13.488;2023-08-17T05:23:02;20.60;93.80
13850;DHT22;6995;52.618;13.488;2023-08-17T05:25:27;20.70;92.40
13850;DHT22;6995;52.618;13.488;2023-08-17T05:27:54;20.60;99.90
13850;DHT22;6995;52.618;13.488;2023-08-17T05:30:20;20.80;93.90
13850;DHT22;6995;52.618;13.488;2023-08-17T05:32:46;20.90;93.80
13850;DHT22;6995;52.618;13.488;2023-08-17T05:35:12;21.00;92.50
13850;DHT22;6995;52.618;13.488;2023-08-17T05:37:37;21.10;81.50
13850;DHT22;6995;52.618;13.488;2023-08-17T05:40:03;21.10;75.60
13850;DHT22;6995;52.618;13.488;2023-08-17T05:42:30;21.00;77.40
13850;DHT22;6995;52.618;13.488;2023-08-17T05:44:56;21.00;81.40
13850;DHT22;6995;52.618;13.488;2023-08-17T05:47:21;21.00;75.20
13850;DHT22;6995;52.618;13.488;2023-08-17T05:49:47;20.90;79.20
13850;DHT22;6995;52.618;13.488;2023-08-17T05:52:12;21.10;76.00
13850;DHT22;6995;52.618;13.488;2023-08-17T05:54:39;21.10;81.50
13850;DHT22;6995;52.618;13.488;2023-08-17T05:57:04;21.20;79.70
13850;DHT22;6995;52.618;13.488;2023-08-17T05:59:30;21.30;77.80
13850;DHT22;6995;52.618;13.488;2023-08-17T06:01:59;21.40;70.40
13850;DHT22;6995;52.618;13.488;2023-08-17T06:04:24;21.40;74.50
13850;DHT22;6995;52.618;13.488;2023-08-17T06:06:51;21.40;66.30
13850;DHT22;6995;52.618;13.488;2023-08-17T06:09:16;21.50;65.20
13850;DHT22;6995;52.618;13.488;2023-08-17T06:11:42;21.50;71.50
13850;DHT22;6995;52.618;13.488;2023-08-17T06:14:08;21.60;64.30
13850;DHT22;6995;52.618;13.488;2023-08-17T06:16:36;21.80;57.30
13850;DHT22;6995;52.618;13.488;2023-08-17T06:19:02;21.90;57.30
13850;DHT22;6995;52.618;13.488;2023-08-17T06:21:28;22.00;49.70
13850;DHT22;6995;52.618;13.488;2023-08-17T06:23:53;22.10;46.50
13850;DHT22;6995;52.618;13.488;2023-08-17T06:26:19;22.00;44.70
13850;DHT22;6995;52.618;13.488;2023-08-17T06:28:44;21.90;49.60
13850;DHT22;6995;52.618;13.488;2023-08-17T06:31:10;21.90;53.60
13850;DHT22;6995;52.618;13.488;2023-08-17T06:33:36;22.00;55.70
13850;DHT22;6995;52.618;13.488;2023-08-17T06:36:01;22.10;57.00
13850;DHT22;6995;52.618;13.488;2023-08-17T06:38:27;22.10;42.10
13850;DHT22;6995;52.618;13.488;2023-08-17T06:40:53;22.10;49.60
13850;DHT22;6995;52.618;13.488;2023-08-17T06:43:18;22.20;43.50
13850;DHT22;6995;52.618;13.488;2023-08-17T06:45:47;22.20;39.40
13850;DHT22;6995;52.618;13.488;2023-08-17T06:48:12;22.20;42.00
13850;DHT22;6995;52.618;13.488;2023-08-17T06:50:38;22.20;34.20
13850;DHT22;6995;52.618;13.488;2023-08-17T06:53:04;22.30;36.30
13850;DHT22;6995;52.618;13.488;2023-08-17T06:55:30;22.50;32.40
13850;DHT22;6995;52.618;13.488;2023-08-17T06:57:57;22.90;19.40
13850;DHT22;6995;52.618;13.488;2023-08-17T07:00:22;23.10;37.40
13850;DHT22;6995;52.618;13.488;2023-08-17T07:02:48;23.10;12.60
13850;DHT22;6995;52.618;13.488;2023-08-17T07:05:14;23.20;8.60
13850;DHT22;6995;52.618;13.488;2023-08-17T07:07:40;23.30;7.20
13850;DHT22;6995;52.618;13.488;2023-08-17T07:10:07;23.40;3.90
13850;DHT22;6995;52.618;13.488;2023-08-17T07:12:33;23.60;1.40
13850;DHT22;6995;52.618;13.488;2023-08-17T07:14:59;23.80;1.00
13850;DHT22;6995;52.618;13.488;2023-08-17T07:17:24;23.90;1.40
13850;DHT22;6995;52.618;13.488;2023-08-17T07:19:50;23.90;1.00
13850;DHT22;6995;52.618;13.488;2023-08-17T07:22:15;23.80;1.00
13850;DHT22;6995;52.618;13.488;2023-08-17T07:24:42;23.90;1.00
13850;DHT22;6995;52.618;13.488;2023-08-17T07:27:08;24.00;2.60
13850;DHT22;6995;52.618;13.488;2023-08-17T07:29:33;24.30;1.00
13850;DHT22;6995;52.618;13.488;2023-08-17T07:31:59;24.50;1.00
13850;DHT22;6995;52.618;13.488;2023-08-17T07:34:28;24.60;1.00
13850;DHT22;6995;52.618;13.488;2023-08-17T07:36:53;24.80;1.00
13850;DHT22;6995;52.618;13.488;2023-08-17T07:39:19;24.70;1.00
13850;DHT22;6995;52.618;13.488;2023-08-17T07:41:44;24.80;1.00
13850;DHT22;6995;52.618;13.488;2023-08-17T07:44:10;24.80;1.00
13850;DHT22;6995;52.618;13.488;2023-08-17T07:46:36;24.80;1.00
13850;DHT22;6995;52.618;13.488;2023-08-17T07:49:03;24.70;1.00
13850;DHT22;6995;52.618;13.488;2023-08-17T07:51:28;24.80;1.00
13850;DHT22;6995;52.618;13.488;2023-08-17T07:53:57;24.90;1.00
13850;DHT22;6995;52.618;13.488;2023-08-17T07:56:22;24.90;1.00
13850;DHT22;6995;52.618;13.488;2023-08-17T07:58:48;25.00;1.00
13850;DHT22;6995;52.618;13.488;2023-08-17T08:01:14;24.80;1.00
13850;DHT22;6995;52.618;13.488;2023-08-17T08:03:43;24.60;1.00
13850;DHT22;6995;52.618;13.488;2023-08-17T08:06:08;24.80;1.00
13850;DHT22;6995;52.618;13.488;2023-08-17T08:08:34;24.60;1.00
13850;DHT22;6995;52.618;13.488;2023-08-17T08:10:59;24.80;1.00
13850;DHT22;6995;52.618;13.488;2023-08-17T08:13:25;24.90;1.00
13850;DHT22;6995;52.618;13.488;2023-08-17T08:15:51;25.10;1.00
13850;DHT22;6995;52.618;13.488;2023-08-17T08:18:16;25.10;1.00
13850;DHT22;6995;52.618;13.488;2023-08-17T08:20:42;25.10;1.00
13850;DHT22;6995;52.618;13.488;2023-08-17T08:23:08;25.10;1.00
13850;DHT22;6995;52.618;13.488;2023-08-17T08:25:33;25.20;1.00
13850;DHT22;6995;52.618;13.488;2023-08-17T08:27:59;25.40;1.00
13850;DHT22;6995;52.618;13.488;2023-08-17T08:30:24;25.60;1.00
13850;DHT22;6995;52.618;13.488;2023-08-17T08:32:51;25.70;1.00
13850;DHT22;6995;52.618;13.488;2023-08-17T08:35:17;25.60;1.00
13850;DHT22;6995;52.618;13.488;2023-08-17T08:37:42;25.50;1.00
13850;DHT22;6995;52.618;13.488;2023-08-17T08:40:11;25.50;1.00
13850;DHT22;6995;52.618;13.488;2023-08-17T08:42:40;25.30;1.00
13850;DHT22;6995;52.618;13.488;2023-08-17T08:45:06;25.50;1.00
13850;DHT22;6995;52.618;13.488;2023-08-17T08:47:34;25.60;1.00
13850;DHT22;6995;52.618;13.488;2023-08-17T08:50:02;25.50;1.00
13850;DHT22;6995;52.618;13.488;2023-08-17T08:52:44;25.20;1.00
13850;DHT22;6995;52.618;13.488;2023-08-17T08:55:17;25.30;1.00
13850;DHT22;6995;52.618;13.488;2023-08-17T08:57:43;25.30;1.00
13850;DHT22;6995;52.618;13.488;2023-08-17T09:00:15;25.40;1.00
13850;DHT22;6995;52.618;13.488;2023-08-17T09:02:42;25.30;1.00
13850;DHT22;6995;52.618;13.488;2023-08-17T09:05:10;25.60;1.00
13850;DHT22;6995;52.618;13.488;2023-08-17T09:07:39;25.50;1.00
13850;DHT22;6995;52.618;13.488;2023-08-17T09:10:05;25.50;7.30
13850;DHT22;6995;52.618;13.488;2023-08-17T09:12:31;25.50;1.00
13850;DHT22;6995;52.618;13.488;2023-08-17T09:14:59;25.20;1.00
13850;DHT22;6995;52.618;13.488;2023-08-17T09:17:26;25.20;1.00
13850;DHT22;6995;52.618;13.488;2023-08-17T09:19:52;25.10;1.00
13850;DHT22;6995;52.618;13.488;2023-08-17T09:22:46;25.10;1.00
13850;DHT22;6995;52.618;13.488;2023-08-17T09:25:10;25.10;1.00
13850;DHT22;6995;52.618;13.488;2023-08-17T09:27:39;25.20;1.00
13850;DHT22;6995;52.618;13.488;2023-08-17T09:30:10;25.10;1.00
13850;DHT22;6995;52.618;13.488;2023-08-17T09:32:36;24.90;1.00
13850;DHT22;6995;52.618;13.488;2023-08-17T09:35:06;24.60;1.00
13850;DHT22;6995;52.618;13.488;2023-08-17T09:37:32;24.50;2.10
13850;DHT22;6995;52.618;13.488;2023-08-17T09:39:58;24.30;6.80
13850;DHT22;6995;52.618;13.488;2023-08-17T09:42:24;24.10;11.40
13850;DHT22;6995;52.618;13.488;2023-08-17T09:44:53;24.00;9.60
13850;DHT22;6995;52.618;13.488;2023-08-17T09:47:21;24.10;14.40
13850;DHT22;6995;52.618;13.488;2023-08-17T09:49:52;24.30;47.50
13850;DHT22;6995;52.618;13.488;2023-08-17T09:52:19;24.60;23.10
13850;DHT22;6995;52.618;13.488;2023-08-17T09:54:46;24.80;32.90
13850;DHT22;6995;52.618;13.488;2023-08-17T09:57:15;25.00;20.00
13850;DHT22;6995;52.618;13.488;2023-08-17T09:59:41;25.40;14.40
13850;DHT22;6995;52.618;13.488;2023-08-17T10:02:22;25.60;9.10
13850;DHT22;6995;52.618;13.488;2023-08-17T10:04:55;25.80;4.70
13850;DHT22;6995;52.618;13.488;2023-08-17T10:07:27;26.00;6.00
13850;DHT22;6995;52.618;13.488;2023-08-17T10:10:00;26.20;1.00
13850;DHT22;6995;52.618;13.488;2023-08-17T10:12:28;26.40;1.00
13850;DHT22;6995;52.618;13.488;2023-08-17T10:15:06;26.30;1.00
13850;DHT22;6995;52.618;13.488;2023-08-17T10:17:39;26.10;7.10
13850;DHT22;6995;52.618;13.488;2023-08-17T10:20:13;26.30;1.00
13850;DHT22;6995;52.618;13.488;2023-08-17T10:23:12;26.40;1.00
13850;DHT22;6995;52.618;13.488;2023-08-17T10:25:40;26.50;1.00
13850;DHT22;6995;52.618;13.488;2023-08-17T10:28:08;26.30;1.00
13850;DHT22;6995;52.618;13.488;2023-08-17T10:30:35;26.30;1.00
13850;DHT22;6995;52.618;13.488;2023-08-17T10:33:02;26.00;1.00
13850;DHT22;6995;52.618;13.488;2023-08-17T10:35:29;25.70;1.00
13850;DHT22;6995;52.618;13.488;2023-08-17T10:38:05;25.50;1.00
13850;DHT22;6995;52.618;13.488;2023-08-17T10:40:42;25.40;1.00
13850;DHT22;6995;52.618;13.488;2023-08-17T10:43:08;25.30;1.00
13850;DHT22;6995;52.618;13.488;2023-08-17T10:45:35;25.10;1.00
13850;DHT22;6995;52.618;13.488;2023-08-17T10:50:38;25.10;1.00
13850;DHT22;6995;52.618;13.488;2023-08-17T10:53:08;25.10;1.00
13850;DHT22;6995;52.618;13.488;2023-08-17T10:58:02;25.50;1.40
13850;DHT22;6995;52.618;13.488;2023-08-17T11:00:33;25.60;1.00
13850;DHT22;6995;52.618;13.488;2023-08-17T11:03:03;25.60;1.00
13850;DHT22;6995;52.618;13.488;2023-08-17T11:08:04;25.80;1.00
13850;DHT22;6995;52.618;13.488;2023-08-17T11:10:30;25.90;1.00
13850;DHT22;6995;52.618;13.488;2023-08-17T11:12:59;26.10;1.00
13850;DHT22;6995;52.618;13.488;2023-08-17T11:15:26;26.20;1.00
13850;DHT22;6995;52.618;13.488;2023-08-17T11:18:00;26.40;1.00
13850;DHT22;6995;52.618;13.488;2023-08-17T11:20:25;26.40;1.00
13850;DHT22;6995;52.618;13.488;2023-08-17T11:22:51;26.30;1.00
13850;DHT22;6995;52.618;13.488;2023-08-17T11:25:17;26.20;1.00
13850;DHT22;6995;52.618;13.488;2023-08-17T11:27:43;26.10;1.00
13850;DHT22;6995;52.618;13.488;2023-08-17T11:30:09;25.80;1.00
13850;DHT22;6995;52.618;13.488;2023-08-17T11:32:35;25.80;1.00
13850;DHT22;6995;52.618;13.488;2023-08-17T11:35:02;26.10;1.00
13850;DHT22;6995;52.618;13.488;2023-08-17T11:37:27;26.20;1.00
13850;DHT22;6995;52.618;13.488;2023-08-17T11:39:53;26.30;1.00
13850;DHT22;6995;52.618;13.488;2023-08-17T11:42:19;26.60;1.00
13850;DHT22;6995;52.618;13.488;2023-08-17T11:44:48;26.90;1.00
13850;DHT22;6995;52.618;13.488;2023-08-17T11:47:14;26.90;1.00
13850;DHT22;6995;52.618;13.488;2023-08-17T11:49:40;27.10;1.00
13850;DHT22;6995;52.618;13.488;2023-08-17T11:52:09;27.10;1.00
13850;DHT22;6995;52.618;13.488;2023-08-17T11:54:40;27.30;1.00
13850;DHT22;6995;52.618;13.488;2023-08-17T11:57:06;27.30;1.00
13850;DHT22;6995;52.618;13.488;2023-08-17T11:59:31;27.30;1.00
13850;DHT22;6995;52.618;13.488;2023-08-17T12:01:59;27.40;1.00
13850;DHT22;6995;52.618;13.488;2023-08-17T12:04:26;27.30;1.00
13850;DHT22;6995;52.618;13.488;2023-08-17T12:06:51;27.40;1.00
13850;DHT22;6995;52.618;13.488;2023-08-17T12:09:18;27.60;1.00
13850;DHT22;6995;52.618;13.488;2023-08-17T12:11:47;27.50;1.00
13850;DHT22;6995;52.618;13.488;2023-08-17T12:14:12;27.80;1.00
13850;DHT22;6995;52.618;13.488;2023-08-17T12:16:48;27.90;1.00
13850;DHT22;6995;52.618;13.488;2023-08-17T12:19:14;27.90;1.00
13850;DHT22;6995;52.618;13.488;2023-08-17T12:21:42;27.90;1.00
13850;DHT22;6995;52.618;13.488;2023-08-17T12:24:09;27.70;1.00
13850;DHT22;6995;52.618;13.488;2023-08-17T12:26:35;27.70;1.00
13850;DHT22;6995;52.618;13.488;2023-08-17T12:29:04;27.60;1.00
13850;DHT22;6995;52.618;13.488;2023-08-17T12:31:31;27.60;1.00
13850;DHT22;6995;52.618;13.488;2023-08-17T12:33:57;28.00;1.00
13850;DHT22;6995;52.618;13.488;2023-08-17T12:36:22;28.30;1.00
13850;DHT22;6995;52.618;13.488;2023-08-17T12:38:48;28.60;1.00
13850;DHT22;6995;52.618;13.488;2023-08-17T12:41:14;28.40;1.00
13850;DHT22;6995;52.618;13.488;2023-08-17T12:43:39;28.60;1.00
13850;DHT22;6995;52.618;13.488;2023-08-17T12:46:05;28.50;1.00
13850;DHT22;6995;52.618;13.488;2023-08-17T12:48:31;29.00;1.00
13850;DHT22;6995;52.618;13.488;2023-08-17T12:50:56;29.70;1.00
13850;DHT22;6995;52.618;13.488;2023-08-17T12:53:22;30.00;1.00
13850;DHT22;6995;52.618;13.488;2023-08-17T12:55:48;30.20;1.00
13850;DHT22;6995;52.618;13.488;2023-08-17T12:58:14;30.10;1.00
13850;DHT22;6995;52.618;13.488;2023-08-17T13:00:40;29.90;1.00
13850;DHT22;6995;52.618;13.488;2023-08-17T13:03:07;29.80;1.00
13850;DHT22;6995;52.618;13.488;2023-08-17T13:05:33;30.10;1.00
13850;DHT22;6995;52.618;13.488;2023-08-17T13:07:59;30.70;1.00
13850;DHT22;6995;52.618;13.488;2023-08-17T13:10:24;30.70;1.00
13850;DHT22;6995;52.618;13.488;2023-08-17T13:12:50;30.30;1.00
13850;DHT22;6995;52.618;13.488;2023-08-17T13:15:21;30.30;1.00
13850;DHT22;6995;52.618;13.488;2023-08-17T13:17:46;30.80;1.00
13850;DHT22;6995;52.618;13.488;2023-08-17T13:20:12;31.40;1.00
13850;DHT22;6995;52.618;13.488;2023-08-17T13:22:38;31.80;1.00
13850;DHT22;6995;52.618;13.488;2023-08-17T13:25:04;31.60;1.00
13850;DHT22;6995;52.618;13.488;2023-08-17T13:27:30;31.40;1.00
13850;DHT22;6995;52.618;13.488;2023-08-17T13:29:55;32.10;1.00
13850;DHT22;6995;52.618;13.488;2023-08-17T13:32:24;32.40;1.00
13850;DHT22;6995;52.618;13.488;2023-08-17T13:34:50;32.60;1.00
13850;DHT22;6995;52.618;13.488;2023-08-17T13:37:16;33.30;1.00
13850;DHT22;6995;52.618;13.488;2023-08-17T13:39:45;33.90;1.00
13850;DHT22;6995;52.618;13.488;2023-08-17T13:42:11;34.20;1.00
13850;DHT22;6995;52.618;13.488;2023-08-17T13:44:38;34.50;1.00
13850;DHT22;6995;52.618;13.488;2023-08-17T13:47:04;34.20;1.00
13850;DHT22;6995;52.618;13.488;2023-08-17T13:49:30;34.00;1.00
13850;DHT22;6995;52.618;13.488;2023-08-17T13:52:01;33.60;1.00
13850;DHT22;6995;52.618;13.488;2023-08-17T13:54:27;33.60;1.00
13850;DHT22;6995;52.618;13.488;2023-08-17T13:56:53;34.00;1.00
13850;DHT22;6995;52.618;13.488;2023-08-17T13:59:19;34.20;1.00
13850;DHT22;6995;52.618;13.488;2023-08-17T14:01:44;34.20;1.00
13850;DHT22;6995;52.618;13.488;2023-08-17T14:04:10;34.50;1.00
13850;DHT22;6995;52.618;13.488;2023-08-17T14:06:40;34.40;1.00
13850;DHT22;6995;52.618;13.488;2023-08-17T14:09:09;33.70;1.00
13850;DHT22;6995;52.618;13.488;2023-08-17T14:11:35;33.70;1.00
13850;DHT22;6995;52.618;13.488;2023-08-17T14:14:00;33.20;1.00
13850;DHT22;6995;52.618;13.488;2023-08-17T14:16:26;32.70;1.00
13850;DHT22;6995;52.618;13.488;2023-08-17T14:18:52;32.60;1.00
13850;DHT22;6995;52.618;13.488;2023-08-17T14:21:17;32.20;1.00
13850;DHT22;6995;52.618;13.488;2023-08-17T14:23:45;32.70;1.00
13850;DHT22;6995;52.618;13.488;2023-08-17T14:26:12;32.10;1.00
13850;DHT22;6995;52.618;13.488;2023-08-17T14:28:37;31.70;1.00
13850;DHT22;6995;52.618;13.488;2023-08-17T14:31:03;31.20;1.00
13850;DHT22;6995;52.618;13.488;2023-08-17T14:33:28;31.60;1.00
13850;DHT22;6995;52.618;13.488;2023-08-17T14:35:54;32.00;1.00
13850;DHT22;6995;52.618;13.488;2023-08-17T14:38:20;32.00;1.00
13850;DHT22;6995;52.618;13.488;2023-08-17T14:40:47;32.20;1.00
13850;DHT22;6995;52.618;13.488;2023-08-17T14:43:13;32.00;1.00
13850;DHT22;6995;52.618;13.488;2023-08-17T14:45:43;31.80;1.00
13850;DHT22;6995;52.618;13.488;2023-08-17T14:48:09;31.40;1.00
13850;DHT22;6995;52.618;13.488;2023-08-17T14:50:37;31.60;1.00
13850;DHT22;6995;52.618;13.488;2023-08-17T14:53:04;31.70;1.00
13850;DHT22;6995;52.618;13.488;2023-08-17T14:55:33;31.60;1.00
13850;DHT22;6995;52.618;13.488;2023-08-17T14:58:00;31.50;1.00
13850;DHT22;6995;52.618;13.488;2023-08-17T15:00:26;31.90;1.00
13850;DHT22;6995;52.618;13.488;2023-08-17T15:02:55;32.80;1.00
13850;DHT22;6995;52.618;13.488;2023-08-17T15:05:20;33.20;1.00
13850;DHT22;6995;52.618;13.488;2023-08-17T15:07:47;33.80;1.00
13850;DHT22;6995;52.618;13.488;2023-08-17T15:10:12;34.40;1.00
13850;DHT22;6995;52.618;13.488;2023-08-17T15:12:38;34.50;1.00
13850;DHT22;6995;52.618;13.488;2023-08-17T15:15:04;33.80;1.00
13850;DHT22;6995;52.618;13.488;2023-08-17T15:17:30;33.90;1.00
13850;DHT22;6995;52.618;13.488;2023-08-17T15:19:55;33.70;1.00
13850;DHT22;6995;52.618;13.488;2023-08-17T15:22:21;34.00;1.00
13850;DHT22;6995;52.618;13.488;2023-08-17T15:24:46;33.80;1.00
13850;DHT22;6995;52.618;13.488;2023-08-17T15:27:13;33.30;1.00
13850;DHT22;6995;52.618;13.488;2023-08-17T15:29:39;32.90;1.00
13850;DHT22;6995;52.618;13.488;2023-08-17T15:32:07;33.40;1.00
13850;DHT22;6995;52.618;13.488;2023-08-17T15:34:33;32.80;1.00
13850;DHT22;6995;52.618;13.488;2023-08-17T15:36:59;32.70;1.00
13850;DHT22;6995;52.618;13.488;2023-08-17T15:39:25;32.40;1.00
13850;DHT22;6995;52.618;13.488;2023-08-17T15:41:51;31.90;1.00
13850;DHT22;6995;52.618;13.488;2023-08-17T15:44:18;31.50;1.00